sensor_id;sensor_type;location;lat;lon;timestamp;temperature;humidity
52513;DHT22;38422;53.172;6.974;2023-07-24T00:02:09;17.60;99.90
52513;DHT22;38422;53.172;6.974;2023-07-24T00:04:35;17.60;99.90
52513;DHT22;38422;53.172;6.974;2023-07-24T00:07:01;17.60;99.90
52513;DHT22;38422;53.172;6.974;2023-07-24T00:09:27;17.60;99.90
52513;DHT22;38422;53.172;6.974;2023-07-24T00:11:53;17.60;99.90
52513;DHT22;38422;53.172;6.974;2023-07-24T00:14:18;17.60;99.90
52513;DHT22;38422;53.172;6.974;2023-07-24T00:16:44;17.50;99.90
52513;DHT22;38422;53.172;6.974;2023-07-24T00:19:10;17.50;99.90
52513;DHT22;38422;53.172;6.974;2023-07-24T00:21:35;17.50;99.90
52513;DHT22;38422;53.172;6.974;2023-07-24T00:24:01;17.50;99.90
52513;DHT22;38422;53.172;6.974;2023-07-24T00:26:27;17.50;99.90
52513;DHT22;38422;53.172;6.974;2023-07-24T00:28:52;17.50;99.90
52513;DHT22;38422;53.172;6.974;2023-07-24T00:31:18;17.50;99.90
52513;DHT22;38422;53.172;6.974;2023-07-24T00:33:44;17.40;99.90
52513;DHT22;38422;53.172;6.974;2023-07-24T00:36:09;17.40;99.90
52513;DHT22;38422;53.172;6.974;2023-07-24T00:38:35;17.40;99.90
52513;DHT22;38422;53.172;6.974;2023-07-24T00:41:01;17.40;99.90
52513;DHT22;38422;53.172;6.974;2023-07-24T00:43:26;17.40;99.90
52513;DHT22;38422;53.172;6.974;2023-07-24T00:45:54;17.30;99.90
52513;DHT22;38422;53.172;6.974;2023-07-24T00:48:20;17.30;99.90
52513;DHT22;38422;53.172;6.974;2023-07-24T00:50:46;17.30;99.90
52513;DHT22;38422;53.172;6.974;2023-07-24T00:53:12;17.30;99.90
52513;DHT22;38422;53.172;6.974;2023-07-24T00:55:39;17.30;99.90
52513;DHT22;38422;53.172;6.974;2023-07-24T00:58:06;17.30;99.90
52513;DHT22;38422;53.172;6.974;2023-07-24T01:00:32;17.30;99.90
52513;DHT22;38422;53.172;6.974;2023-07-24T01:02:59;17.30;99.90
52513;DHT22;38422;53.172;6.974;2023-07-24T01:05:25;17.30;99.90
52513;DHT22;38422;53.172;6.974;2023-07-24T01:07:52;17.20;99.90
52513;DHT22;38422;53.172;6.974;2023-07-24T01:10:18;17.20;99.90
52513;DHT22;38422;53.172;6.974;2023-07-24T01:13:03;17.20;99.90
52513;DHT22;38422;53.172;6.974;2023-07-24T01:15:31;17.20;99.90
52513;DHT22;38422;53.172;6.974;2023-07-24T01:18:00;17.20;99.90
52513;DHT22;38422;53.172;6.974;2023-07-24T01:20:29;17.20;99.90
52513;DHT22;38422;53.172;6.974;2023-07-24T01:23:18;17.20;99.90
52513;DHT22;38422;53.172;6.974;2023-07-24T01:25:59;17.20;99.90
52513;DHT22;38422;53.172;6.974;2023-07-24T01:28:26;17.10;99.90
52513;DHT22;38422;53.172;6.974;2023-07-24T01:30:52;17.10;99.90
52513;DHT22;38422;53.172;6.974;2023-07-24T01:33:19;17.10;99.90
52513;DHT22;38422;53.172;6.974;2023-07-24T01:35:45;17.10;99.90
52513;DHT22;38422;53.172;6.974;2023-07-24T01:38:15;17.10;99.90
52513;DHT22;38422;53.172;6.974;2023-07-24T01:40:42;17.10;99.90
52513;DHT22;38422;53.172;6.974;2023-07-24T01:43:11;17.10;99.90
52513;DHT22;38422;53.172;6.974;2023-07-24T01:45:37;17.20;99.90
52513;DHT22;38422;53.172;6.974;2023-07-24T01:48:06;17.20;99.90
52513;DHT22;38422;53.172;6.974;2023-07-24T01:50:32;17.10;99.90
52513;DHT22;38422;53.172;6.974;2023-07-24T01:52:57;17.10;99.90
52513;DHT22;38422;53.172;6.974;2023-07-24T01:55:23;17.10;99.90
52513;DHT22;38422;53.172;6.974;2023-07-24T01:57:49;17.10;99.90
52513;DHT22;38422;53.172;6.974;2023-07-24T02:00:18;17.10;99.90
52513;DHT22;38422;53.172;6.974;2023-07-24T02:02:43;17.10;99.90
52513;DHT22;38422;53.172;6.974;2023-07-24T02:05:09;17.10;99.90
52513;DHT22;38422;53.172;6.974;2023-07-24T02:07:35;17.10;99.90
52513;DHT22;38422;53.172;6.974;2023-07-24T02:10:01;17.10;99.90
52513;DHT22;38422;53.172;6.974;2023-07-24T02:12:27;17.10;99.90
52513;DHT22;38422;53.172;6.974;2023-07-24T02:14:52;17.10;99.90
52513;DHT22;38422;53.172;6.974;2023-07-24T02:17:18;17.10;99.90
52513;DHT22;38422;53.172;6.974;2023-07-24T02:19:44;17.10;99.90
52513;DHT22;38422;53.172;6.974;2023-07-24T02:22:11;17.10;99.90
52513;DHT22;38422;53.172;6.974;2023-07-24T02:24:36;17.10;99.90
52513;DHT22;38422;53.172;6.974;2023-07-24T02:27:02;17.10;99.90
52513;DHT22;38422;53.172;6.974;2023-07-24T02:29:28;17.10;99.90
52513;DHT22;38422;53.172;6.974;2023-07-24T02:31:54;17.10;99.90
52513;DHT22;38422;53.172;6.974;2023-07-24T02:34:20;17.10;99.90
52513;DHT22;38422;53.172;6.974;2023-07-24T02:36:52;17.10;99.90
52513;DHT22;38422;53.172;6.974;2023-07-24T02:39:19;17.10;99.90
52513;DHT22;38422;53.172;6.974;2023-07-24T02:41:45;17.10;99.90
52513;DHT22;38422;53.172;6.974;2023-07-24T02:44:11;17.10;99.90
52513;DHT22;38422;53.172;6.974;2023-07-24T02:46:37;17.10;99.90
52513;DHT22;38422;53.172;6.974;2023-07-24T02:49:03;17.10;99.90
52513;DHT22;38422;53.172;6.974;2023-07-24T02:51:28;17.10;99.90
52513;DHT22;38422;53.172;6.974;2023-07-24T02:53:54;17.10;99.90
52513;DHT22;38422;53.172;6.974;2023-07-24T02:56:20;17.10;99.90
52513;DHT22;38422;53.172;6.974;2023-07-24T02:58:46;17.10;99.90
52513;DHT22;38422;53.172;6.974;2023-07-24T03:01:12;17.10;99.90
52513;DHT22;38422;53.172;6.974;2023-07-24T03:03:39;17.00;99.90
52513;DHT22;38422;53.172;6.974;2023-07-24T03:06:05;17.00;99.90
52513;DHT22;38422;53.172;6.974;2023-07-24T03:08:31;17.00;99.90
52513;DHT22;38422;53.172;6.974;2023-07-24T03:10:57;17.00;99.90
52513;DHT22;38422;53.172;6.974;2023-07-24T03:13:23;17.00;99.90
52513;DHT22;38422;53.172;6.974;2023-07-24T03:15:56;17.00;99.90
52513;DHT22;38422;53.172;6.974;2023-07-24T03:18:22;17.00;99.90
52513;DHT22;38422;53.172;6.974;2023-07-24T03:20:48;17.00;99.90
52513;DHT22;38422;53.172;6.974;2023-07-24T03:23:14;17.00;99.90
52513;DHT22;38422;53.172;6.974;2023-07-24T03:25:39;17.00;99.90
52513;DHT22;38422;53.172;6.974;2023-07-24T03:28:05;17.00;99.90
52513;DHT22;38422;53.172;6.974;2023-07-24T03:30:31;17.00;99.90
52513;DHT22;38422;53.172;6.974;2023-07-24T03:32:57;17.00;99.90
52513;DHT22;38422;53.172;6.974;2023-07-24T03:35:23;17.00;99.90
52513;DHT22;38422;53.172;6.974;2023-07-24T03:37:48;17.00;99.90
52513;DHT22;38422;53.172;6.974;2023-07-24T03:40:14;17.00;99.90
52513;DHT22;38422;53.172;6.974;2023-07-24T03:42:41;17.00;99.90
52513;DHT22;38422;53.172;6.974;2023-07-24T03:45:07;17.00;99.90
52513;DHT22;38422;53.172;6.974;2023-07-24T03:47:33;17.00;99.90
52513;DHT22;38422;53.172;6.974;2023-07-24T03:49:59;17.00;99.90
52513;DHT22;38422;53.172;6.974;2023-07-24T03:52:25;17.00;99.90
52513;DHT22;38422;53.172;6.974;2023-07-24T03:54:52;17.00;99.90
52513;DHT22;38422;53.172;6.974;2023-07-24T03:57:18;17.00;99.90
52513;DHT22;38422;53.172;6.974;2023-07-24T03:59:43;17.00;99.90
52513;DHT22;38422;53.172;6.974;2023-07-24T04:02:09;17.10;99.90
52513;DHT22;38422;53.172;6.974;2023-07-24T04:04:35;17.10;99.90
52513;DHT22;38422;53.172;6.974;2023-07-24T04:07:01;17.10;99.90
52513;DHT22;38422;53.172;6.974;2023-07-24T04:09:26;17.10;99.90
52513;DHT22;38422;53.172;6.974;2023-07-24T04:11:52;17.10;99.90
52513;DHT22;38422;53.172;6.974;2023-07-24T04:14:18;17.10;99.90
52513;DHT22;38422;53.172;6.974;2023-07-24T04:16:43;17.10;99.90
52513;DHT22;38422;53.172;6.974;2023-07-24T04:19:10;17.10;99.90
52513;DHT22;38422;53.172;6.974;2023-07-24T04:21:36;17.10;99.90
52513;DHT22;38422;53.172;6.974;2023-07-24T04:24:02;17.20;99.90
52513;DHT22;38422;53.172;6.974;2023-07-24T04:26:27;17.20;99.90
52513;DHT22;38422;53.172;6.974;2023-07-24T04:28:53;17.20;99.90
52513;DHT22;38422;53.172;6.974;2023-07-24T04:31:19;17.20;99.90
52513;DHT22;38422;53.172;6.974;2023-07-24T04:33:44;17.20;99.90
52513;DHT22;38422;53.172;6.974;2023-07-24T04:36:10;17.20;99.90
52513;DHT22;38422;53.172;6.974;2023-07-24T04:38:36;17.20;99.90
52513;DHT22;38422;53.172;6.974;2023-07-24T04:41:01;17.20;99.90
52513;DHT22;38422;53.172;6.974;2023-07-24T04:43:30;17.20;99.90
52513;DHT22;38422;53.172;6.974;2023-07-24T04:45:56;17.20;99.90
52513;DHT22;38422;53.172;6.974;2023-07-24T04:48:22;17.30;99.90
52513;DHT22;38422;53.172;6.974;2023-07-24T04:50:53;17.30;99.90
52513;DHT22;38422;53.172;6.974;2023-07-24T04:53:19;17.30;99.90
52513;DHT22;38422;53.172;6.974;2023-07-24T04:55:46;17.30;99.90
52513;DHT22;38422;53.172;6.974;2023-07-24T04:58:11;17.30;99.90
52513;DHT22;38422;53.172;6.974;2023-07-24T05:00:37;17.30;99.90
52513;DHT22;38422;53.172;6.974;2023-07-24T05:03:03;17.30;99.90
52513;DHT22;38422;53.172;6.974;2023-07-24T05:05:29;17.30;99.90
52513;DHT22;38422;53.172;6.974;2023-07-24T05:07:54;17.30;99.90
52513;DHT22;38422;53.172;6.974;2023-07-24T05:10:20;17.30;99.90
52513;DHT22;38422;53.172;6.974;2023-07-24T05:12:46;17.30;99.90
52513;DHT22;38422;53.172;6.974;2023-07-24T05:15:11;17.30;99.90
52513;DHT22;38422;53.172;6.974;2023-07-24T05:17:37;17.30;99.90
52513;DHT22;38422;53.172;6.974;2023-07-24T05:20:03;17.30;99.90
52513;DHT22;38422;53.172;6.974;2023-07-24T05:22:29;17.30;99.90
52513;DHT22;38422;53.172;6.974;2023-07-24T05:24:57;17.30;99.90
52513;DHT22;38422;53.172;6.974;2023-07-24T05:27:23;17.30;99.90
52513;DHT22;38422;53.172;6.974;2023-07-24T05:29:48;17.30;99.90
52513;DHT22;38422;53.172;6.974;2023-07-24T05:32:14;17.30;99.90
52513;DHT22;38422;53.172;6.974;2023-07-24T05:34:40;17.30;99.90
52513;DHT22;38422;53.172;6.974;2023-07-24T05:37:06;17.30;99.90
52513;DHT22;38422;53.172;6.974;2023-07-24T05:39:31;17.30;99.90
52513;DHT22;38422;53.172;6.974;2023-07-24T05:42:00;17.40;99.90
52513;DHT22;38422;53.172;6.974;2023-07-24T05:44:25;17.40;99.90
52513;DHT22;38422;53.172;6.974;2023-07-24T05:46:51;17.50;99.90
52513;DHT22;38422;53.172;6.974;2023-07-24T05:49:17;17.40;99.90
52513;DHT22;38422;53.172;6.974;2023-07-24T05:51:42;17.50;99.90
52513;DHT22;38422;53.172;6.974;2023-07-24T05:54:08;17.60;99.90
52513;DHT22;38422;53.172;6.974;2023-07-24T05:56:34;17.60;99.90
52513;DHT22;38422;53.172;6.974;2023-07-24T05:58:59;17.70;99.90
52513;DHT22;38422;53.172;6.974;2023-07-24T06:01:25;17.70;99.90
52513;DHT22;38422;53.172;6.974;2023-07-24T06:03:51;17.70;99.90
52513;DHT22;38422;53.172;6.974;2023-07-24T06:06:16;17.80;99.90
52513;DHT22;38422;53.172;6.974;2023-07-24T06:08:42;17.80;99.90
52513;DHT22;38422;53.172;6.974;2023-07-24T06:11:08;17.80;99.90
52513;DHT22;38422;53.172;6.974;2023-07-24T06:13:33;17.80;99.90
52513;DHT22;38422;53.172;6.974;2023-07-24T06:15:59;17.80;99.90
52513;DHT22;38422;53.172;6.974;2023-07-24T06:18:25;17.80;99.90
52513;DHT22;38422;53.172;6.974;2023-07-24T06:20:54;17.80;99.90
52513;DHT22;38422;53.172;6.974;2023-07-24T06:23:20;17.80;99.90
52513;DHT22;38422;53.172;6.974;2023-07-24T06:25:46;17.80;99.90
52513;DHT22;38422;53.172;6.974;2023-07-24T06:28:11;17.80;99.90
52513;DHT22;38422;53.172;6.974;2023-07-24T06:30:38;17.80;99.90
52513;DHT22;38422;53.172;6.974;2023-07-24T06:33:04;17.80;99.90
52513;DHT22;38422;53.172;6.974;2023-07-24T06:35:30;17.70;99.90
52513;DHT22;38422;53.172;6.974;2023-07-24T06:37:56;17.70;99.90
52513;DHT22;38422;53.172;6.974;2023-07-24T06:40:22;17.70;99.90
52513;DHT22;38422;53.172;6.974;2023-07-24T06:42:47;17.70;99.90
52513;DHT22;38422;53.172;6.974;2023-07-24T06:45:13;17.70;99.90
52513;DHT22;38422;53.172;6.974;2023-07-24T06:47:39;17.80;99.90
52513;DHT22;38422;53.172;6.974;2023-07-24T06:50:05;17.80;99.90
52513;DHT22;38422;53.172;6.974;2023-07-24T06:52:32;17.80;99.90
52513;DHT22;38422;53.172;6.974;2023-07-24T06:54:58;17.80;99.90
52513;DHT22;38422;53.172;6.974;2023-07-24T06:57:24;17.90;99.90
52513;DHT22;38422;53.172;6.974;2023-07-24T06:59:50;17.90;99.90
52513;DHT22;38422;53.172;6.974;2023-07-24T07:02:16;17.90;99.90
52513;DHT22;38422;53.172;6.974;2023-07-24T07:04:41;17.90;99.90
52513;DHT22;38422;53.172;6.974;2023-07-24T07:07:07;18.00;99.90
52513;DHT22;38422;53.172;6.974;2023-07-24T07:09:33;18.00;99.90
52513;DHT22;38422;53.172;6.974;2023-07-24T07:11:58;18.10;99.90
52513;DHT22;38422;53.172;6.974;2023-07-24T07:14:24;18.10;99.90
52513;DHT22;38422;53.172;6.974;2023-07-24T07:16:50;18.10;99.90
52513;DHT22;38422;53.172;6.974;2023-07-24T07:19:16;18.20;99.90
52513;DHT22;38422;53.172;6.974;2023-07-24T07:21:42;18.20;99.90
52513;DHT22;38422;53.172;6.974;2023-07-24T07:24:08;18.20;99.90
52513;DHT22;38422;53.172;6.974;2023-07-24T07:26:33;18.20;99.90
52513;DHT22;38422;53.172;6.974;2023-07-24T07:28:59;18.30;99.90
52513;DHT22;38422;53.172;6.974;2023-07-24T07:31:25;18.30;99.90
52513;DHT22;38422;53.172;6.974;2023-07-24T07:33:51;18.30;99.90
52513;DHT22;38422;53.172;6.974;2023-07-24T07:36:17;18.40;99.90
52513;DHT22;38422;53.172;6.974;2023-07-24T07:38:48;18.40;99.90
52513;DHT22;38422;53.172;6.974;2023-07-24T07:41:14;18.40;99.90
52513;DHT22;38422;53.172;6.974;2023-07-24T07:43:40;18.40;99.90
52513;DHT22;38422;53.172;6.974;2023-07-24T07:46:06;18.50;99.90
52513;DHT22;38422;53.172;6.974;2023-07-24T07:48:31;18.50;99.90
52513;DHT22;38422;53.172;6.974;2023-07-24T07:50:58;18.60;99.90
52513;DHT22;38422;53.172;6.974;2023-07-24T07:53:23;18.70;99.90
52513;DHT22;38422;53.172;6.974;2023-07-24T07:55:56;18.70;99.90
52513;DHT22;38422;53.172;6.974;2023-07-24T07:58:23;18.70;99.90
52513;DHT22;38422;53.172;6.974;2023-07-24T08:00:49;18.80;99.90
52513;DHT22;38422;53.172;6.974;2023-07-24T08:03:14;18.90;99.90
52513;DHT22;38422;53.172;6.974;2023-07-24T08:05:40;18.90;99.90
52513;DHT22;38422;53.172;6.974;2023-07-24T08:08:06;19.00;99.90
52513;DHT22;38422;53.172;6.974;2023-07-24T08:10:31;19.00;99.90
52513;DHT22;38422;53.172;6.974;2023-07-24T08:12:57;19.10;99.90
52513;DHT22;38422;53.172;6.974;2023-07-24T08:15:23;19.20;99.90
52513;DHT22;38422;53.172;6.974;2023-07-24T08:17:48;19.10;99.90
52513;DHT22;38422;53.172;6.974;2023-07-24T08:20:14;19.20;99.90
52513;DHT22;38422;53.172;6.974;2023-07-24T08:22:43;19.20;99.90
52513;DHT22;38422;53.172;6.974;2023-07-24T08:25:09;19.40;99.90
52513;DHT22;38422;53.172;6.974;2023-07-24T08:27:37;19.50;99.90
52513;DHT22;38422;53.172;6.974;2023-07-24T08:30:03;19.50;99.90
52513;DHT22;38422;53.172;6.974;2023-07-24T08:32:32;19.60;99.90
52513;DHT22;38422;53.172;6.974;2023-07-24T08:34:58;19.70;99.90
52513;DHT22;38422;53.172;6.974;2023-07-24T08:37:24;19.70;99.90
52513;DHT22;38422;53.172;6.974;2023-07-24T08:39:50;19.70;99.90
52513;DHT22;38422;53.172;6.974;2023-07-24T08:42:15;19.70;99.90
52513;DHT22;38422;53.172;6.974;2023-07-24T08:44:42;19.80;99.90
52513;DHT22;38422;53.172;6.974;2023-07-24T08:47:11;19.80;99.90
52513;DHT22;38422;53.172;6.974;2023-07-24T08:49:39;19.80;99.90
52513;DHT22;38422;53.172;6.974;2023-07-24T08:52:07;19.90;99.90
52513;DHT22;38422;53.172;6.974;2023-07-24T08:54:35;20.00;99.90
52513;DHT22;38422;53.172;6.974;2023-07-24T08:57:02;19.90;99.90
52513;DHT22;38422;53.172;6.974;2023-07-24T08:59:28;19.90;99.90
52513;DHT22;38422;53.172;6.974;2023-07-24T09:01:55;20.00;99.90
52513;DHT22;38422;53.172;6.974;2023-07-24T09:04:21;20.00;99.90
52513;DHT22;38422;53.172;6.974;2023-07-24T09:06:47;20.00;99.90
52513;DHT22;38422;53.172;6.974;2023-07-24T09:09:14;20.10;99.90
52513;DHT22;38422;53.172;6.974;2023-07-24T09:11:49;20.10;99.90
52513;DHT22;38422;53.172;6.974;2023-07-24T09:14:25;20.20;99.90
52513;DHT22;38422;53.172;6.974;2023-07-24T09:17:07;20.20;99.90
52513;DHT22;38422;53.172;6.974;2023-07-24T09:19:34;20.30;99.90
52513;DHT22;38422;53.172;6.974;2023-07-24T09:22:29;20.30;99.90
52513;DHT22;38422;53.172;6.974;2023-07-24T09:24:56;20.30;99.90
52513;DHT22;38422;53.172;6.974;2023-07-24T09:27:27;20.40;99.90
52513;DHT22;38422;53.172;6.974;2023-07-24T09:29:56;20.40;99.90
52513;DHT22;38422;53.172;6.974;2023-07-24T09:32:24;20.40;99.90
52513;DHT22;38422;53.172;6.974;2023-07-24T09:34:50;20.40;99.90
52513;DHT22;38422;53.172;6.974;2023-07-24T09:37:27;20.40;99.90
52513;DHT22;38422;53.172;6.974;2023-07-24T09:39:53;20.30;99.90
52513;DHT22;38422;53.172;6.974;2023-07-24T09:42:28;20.40;99.90
52513;DHT22;38422;53.172;6.974;2023-07-24T09:44:54;20.50;99.90
52513;DHT22;38422;53.172;6.974;2023-07-24T09:47:20;20.50;99.90
52513;DHT22;38422;53.172;6.974;2023-07-24T09:49:46;20.60;99.90
52513;DHT22;38422;53.172;6.974;2023-07-24T09:52:13;20.60;99.90
52513;DHT22;38422;53.172;6.974;2023-07-24T09:54:43;20.70;99.90
52513;DHT22;38422;53.172;6.974;2023-07-24T09:57:11;20.80;99.90
52513;DHT22;38422;53.172;6.974;2023-07-24T09:59:39;20.90;99.90
52513;DHT22;38422;53.172;6.974;2023-07-24T10:02:06;21.00;99.90
52513;DHT22;38422;53.172;6.974;2023-07-24T10:04:35;21.20;99.90
52513;DHT22;38422;53.172;6.974;2023-07-24T10:07:01;21.50;99.90
52513;DHT22;38422;53.172;6.974;2023-07-24T10:09:26;22.00;99.90
52513;DHT22;38422;53.172;6.974;2023-07-24T10:11:52;22.40;99.90
52513;DHT22;38422;53.172;6.974;2023-07-24T10:14:18;22.80;99.90
52513;DHT22;38422;53.172;6.974;2023-07-24T10:16:45;23.10;99.90
52513;DHT22;38422;53.172;6.974;2023-07-24T10:19:15;23.30;99.90
52513;DHT22;38422;53.172;6.974;2023-07-24T10:21:51;23.30;99.90
52513;DHT22;38422;53.172;6.974;2023-07-24T10:24:17;23.30;99.90
52513;DHT22;38422;53.172;6.974;2023-07-24T10:26:43;23.40;99.90
52513;DHT22;38422;53.172;6.974;2023-07-24T10:29:11;23.60;99.90
52513;DHT22;38422;53.172;6.974;2023-07-24T10:31:38;23.50;99.90
52513;DHT22;38422;53.172;6.974;2023-07-24T10:34:05;23.40;99.90
52513;DHT22;38422;53.172;6.974;2023-07-24T10:36:35;23.40;99.90
52513;DHT22;38422;53.172;6.974;2023-07-24T10:39:01;23.30;99.90
52513;DHT22;38422;53.172;6.974;2023-07-24T10:41:35;23.30;99.90
52513;DHT22;38422;53.172;6.974;2023-07-24T10:44:01;23.30;99.90
52513;DHT22;38422;53.172;6.974;2023-07-24T10:46:36;23.50;99.90
52513;DHT22;38422;53.172;6.974;2023-07-24T10:49:02;23.80;99.90
52513;DHT22;38422;53.172;6.974;2023-07-24T10:51:29;24.00;99.90
52513;DHT22;38422;53.172;6.974;2023-07-24T10:53:55;24.10;99.90
52513;DHT22;38422;53.172;6.974;2023-07-24T10:56:21;24.00;99.90
52513;DHT22;38422;53.172;6.974;2023-07-24T10:58:46;23.80;99.90
52513;DHT22;38422;53.172;6.974;2023-07-24T11:01:12;23.80;99.90
52513;DHT22;38422;53.172;6.974;2023-07-24T11:03:40;23.70;99.90
52513;DHT22;38422;53.172;6.974;2023-07-24T11:06:15;23.70;99.90
52513;DHT22;38422;53.172;6.974;2023-07-24T11:08:41;23.90;99.90
52513;DHT22;38422;53.172;6.974;2023-07-24T11:11:07;24.10;99.90
52513;DHT22;38422;53.172;6.974;2023-07-24T11:13:33;24.10;99.90
52513;DHT22;38422;53.172;6.974;2023-07-24T11:16:05;24.00;99.90
52513;DHT22;38422;53.172;6.974;2023-07-24T11:18:31;23.90;99.90
52513;DHT22;38422;53.172;6.974;2023-07-24T11:20:57;23.80;99.90
52513;DHT22;38422;53.172;6.974;2023-07-24T11:23:23;23.80;99.90
52513;DHT22;38422;53.172;6.974;2023-07-24T11:25:53;23.80;99.90
52513;DHT22;38422;53.172;6.974;2023-07-24T11:28:20;23.80;99.90
52513;DHT22;38422;53.172;6.974;2023-07-24T11:30:46;23.70;99.90
52513;DHT22;38422;53.172;6.974;2023-07-24T11:33:14;23.60;99.90
52513;DHT22;38422;53.172;6.974;2023-07-24T11:35:41;23.50;99.90
52513;DHT22;38422;53.172;6.974;2023-07-24T11:38:10;23.50;99.90
52513;DHT22;38422;53.172;6.974;2023-07-24T11:40:41;23.60;99.90
52513;DHT22;38422;53.172;6.974;2023-07-24T11:43:22;23.50;99.90
52513;DHT22;38422;53.172;6.974;2023-07-24T11:45:49;23.50;99.90
52513;DHT22;38422;53.172;6.974;2023-07-24T11:48:18;23.40;99.90
52513;DHT22;38422;53.172;6.974;2023-07-24T11:50:46;23.30;99.90
52513;DHT22;38422;53.172;6.974;2023-07-24T11:53:26;23.30;99.90
52513;DHT22;38422;53.172;6.974;2023-07-24T11:55:53;23.20;99.90
52513;DHT22;38422;53.172;6.974;2023-07-24T11:58:20;23.20;99.90
52513;DHT22;38422;53.172;6.974;2023-07-24T12:00:47;23.30;99.90
52513;DHT22;38422;53.172;6.974;2023-07-24T12:03:14;23.30;99.90
52513;DHT22;38422;53.172;6.974;2023-07-24T12:05:43;23.30;99.90
52513;DHT22;38422;53.172;6.974;2023-07-24T12:08:10;23.30;99.90
52513;DHT22;38422;53.172;6.974;2023-07-24T12:10:40;23.40;99.90
52513;DHT22;38422;53.172;6.974;2023-07-24T12:13:06;23.50;99.90
52513;DHT22;38422;53.172;6.974;2023-07-24T12:15:32;23.60;99.90
52513;DHT22;38422;53.172;6.974;2023-07-24T12:18:00;23.60;99.90
52513;DHT22;38422;53.172;6.974;2023-07-24T12:20:26;23.80;99.90
52513;DHT22;38422;53.172;6.974;2023-07-24T12:22:52;24.00;99.90
52513;DHT22;38422;53.172;6.974;2023-07-24T12:25:19;24.20;99.90
52513;DHT22;38422;53.172;6.974;2023-07-24T12:27:46;24.20;99.90
52513;DHT22;38422;53.172;6.974;2023-07-24T12:30:12;24.20;99.90
52513;DHT22;38422;53.172;6.974;2023-07-24T12:32:38;24.20;99.90
52513;DHT22;38422;53.172;6.974;2023-07-24T12:35:04;24.50;99.90
52513;DHT22;38422;53.172;6.974;2023-07-24T12:37:31;24.80;99.90
52513;DHT22;38422;53.172;6.974;2023-07-24T12:39:57;25.10;99.90
52513;DHT22;38422;53.172;6.974;2023-07-24T12:42:23;25.00;99.90
52513;DHT22;38422;53.172;6.974;2023-07-24T12:44:49;25.10;99.90
52513;DHT22;38422;53.172;6.974;2023-07-24T12:47:14;24.90;99.90
52513;DHT22;38422;53.172;6.974;2023-07-24T12:49:40;24.70;99.90
52513;DHT22;38422;53.172;6.974;2023-07-24T12:52:06;24.50;99.90
52513;DHT22;38422;53.172;6.974;2023-07-24T12:54:33;24.40;99.90
52513;DHT22;38422;53.172;6.974;2023-07-24T12:56:59;24.10;99.90
52513;DHT22;38422;53.172;6.974;2023-07-24T12:59:29;23.90;99.90
52513;DHT22;38422;53.172;6.974;2023-07-24T13:01:54;23.70;99.90
52513;DHT22;38422;53.172;6.974;2023-07-24T13:04:21;23.60;99.90
52513;DHT22;38422;53.172;6.974;2023-07-24T13:06:47;23.50;99.90
52513;DHT22;38422;53.172;6.974;2023-07-24T13:09:13;23.40;99.90
52513;DHT22;38422;53.172;6.974;2023-07-24T13:11:39;23.30;99.90
52513;DHT22;38422;53.172;6.974;2023-07-24T13:14:04;23.10;99.90
52513;DHT22;38422;53.172;6.974;2023-07-24T13:16:30;22.90;99.90
52513;DHT22;38422;53.172;6.974;2023-07-24T13:18:56;22.60;99.90
52513;DHT22;38422;53.172;6.974;2023-07-24T13:21:21;22.30;99.90
52513;DHT22;38422;53.172;6.974;2023-07-24T13:23:48;21.90;99.90
52513;DHT22;38422;53.172;6.974;2023-07-24T13:26:15;21.60;99.90
52513;DHT22;38422;53.172;6.974;2023-07-24T13:28:41;21.50;99.90
52513;DHT22;38422;53.172;6.974;2023-07-24T13:31:18;21.40;99.90
52513;DHT22;38422;53.172;6.974;2023-07-24T13:33:44;21.40;99.90
52513;DHT22;38422;53.172;6.974;2023-07-24T13:36:10;21.40;99.90
52513;DHT22;38422;53.172;6.974;2023-07-24T13:38:36;21.50;99.90
52513;DHT22;38422;53.172;6.974;2023-07-24T13:41:02;21.80;99.90
52513;DHT22;38422;53.172;6.974;2023-07-24T13:43:29;22.20;99.90
52513;DHT22;38422;53.172;6.974;2023-07-24T13:45:56;22.80;99.90
52513;DHT22;38422;53.172;6.974;2023-07-24T13:48:22;23.20;99.90
52513;DHT22;38422;53.172;6.974;2023-07-24T13:50:48;23.40;99.90
52513;DHT22;38422;53.172;6.974;2023-07-24T13:53:14;23.30;99.90
52513;DHT22;38422;53.172;6.974;2023-07-24T13:55:40;23.10;99.90
52513;DHT22;38422;53.172;6.974;2023-07-24T13:58:05;22.90;99.90
52513;DHT22;38422;53.172;6.974;2023-07-24T14:00:31;22.80;99.90
52513;DHT22;38422;53.172;6.974;2023-07-24T14:02:57;22.50;99.90
52513;DHT22;38422;53.172;6.974;2023-07-24T14:05:22;22.40;99.90
52513;DHT22;38422;53.172;6.974;2023-07-24T14:07:48;22.30;99.90
52513;DHT22;38422;53.172;6.974;2023-07-24T14:10:14;22.10;99.90
52513;DHT22;38422;53.172;6.974;2023-07-24T14:12:40;22.00;99.90
52513;DHT22;38422;53.172;6.974;2023-07-24T14:15:06;22.00;99.90
52513;DHT22;38422;53.172;6.974;2023-07-24T14:17:31;21.90;99.90
52513;DHT22;38422;53.172;6.974;2023-07-24T14:19:57;21.80;99.90
52513;DHT22;38422;53.172;6.974;2023-07-24T14:22:23;21.80;99.90
52513;DHT22;38422;53.172;6.974;2023-07-24T14:24:49;21.80;99.90
52513;DHT22;38422;53.172;6.974;2023-07-24T14:27:14;21.70;99.90
52513;DHT22;38422;53.172;6.974;2023-07-24T14:29:40;21.60;99.90
52513;DHT22;38422;53.172;6.974;2023-07-24T14:32:06;21.40;99.90
52513;DHT22;38422;53.172;6.974;2023-07-24T14:34:32;21.40;99.90
52513;DHT22;38422;53.172;6.974;2023-07-24T14:36:59;21.30;99.90
52513;DHT22;38422;53.172;6.974;2023-07-24T14:39:25;21.20;99.90
52513;DHT22;38422;53.172;6.974;2023-07-24T14:41:51;21.20;99.90
52513;DHT22;38422;53.172;6.974;2023-07-24T14:44:17;21.10;99.90
52513;DHT22;38422;53.172;6.974;2023-07-24T14:46:43;21.00;99.90
52513;DHT22;38422;53.172;6.974;2023-07-24T14:49:08;20.90;99.90
52513;DHT22;38422;53.172;6.974;2023-07-24T14:51:34;20.90;99.90
52513;DHT22;38422;53.172;6.974;2023-07-24T14:54:00;20.80;99.90
52513;DHT22;38422;53.172;6.974;2023-07-24T14:56:25;20.80;99.90
52513;DHT22;38422;53.172;6.974;2023-07-24T14:58:51;20.90;99.90
52513;DHT22;38422;53.172;6.974;2023-07-24T15:01:17;20.80;99.90
52513;DHT22;38422;53.172;6.974;2023-07-24T15:03:43;20.90;99.90
52513;DHT22;38422;53.172;6.974;2023-07-24T15:06:09;21.00;99.90
52513;DHT22;38422;53.172;6.974;2023-07-24T15:08:34;21.00;99.90
52513;DHT22;38422;53.172;6.974;2023-07-24T15:11:00;21.10;99.90
52513;DHT22;38422;53.172;6.974;2023-07-24T15:13:26;21.20;99.90
52513;DHT22;38422;53.172;6.974;2023-07-24T15:15:51;21.20;99.90
52513;DHT22;38422;53.172;6.974;2023-07-24T15:18:17;21.30;99.90
52513;DHT22;38422;53.172;6.974;2023-07-24T15:20:43;21.40;99.90
52513;DHT22;38422;53.172;6.974;2023-07-24T15:23:09;21.50;99.90
52513;DHT22;38422;53.172;6.974;2023-07-24T15:25:35;21.60;99.90
52513;DHT22;38422;53.172;6.974;2023-07-24T15:28:01;21.80;99.90